WetterOnline ( https://www.wetteronline.de )

Wetter aktuell Plön

Aktuelles Wetter: Dörnick (28m)

6-stündlich | Neueste Meldungen
Ortszeit Temperatur Wetter
Sa, 04.02. 7:00 1.2° C wolkig
Sa, 04.02. 1:00 3.5° C bedeckt
Fr, 03.02. 19:00 6.6° C Sprühregen
Fr, 03.02. 13:00 7.9° C bedeckt
Fr, 03.02. 7:00 7.4° C leichter Regen
Fr, 03.02. 1:00 3.9° C leichter Regen
Do, 02.02. 19:00 2.3° C bedeckt
Do, 02.02. 13:00 6.0° C leicht bewölkt
Ortszeit Temperatur Wetter
Sa, 04.02. 7:00 1.2° C wolkig
Sa, 04.02. 6:50 1.2° C wolkig
Sa, 04.02. 6:40 1.2° C wolkig
Sa, 04.02. 6:30 1.0° C wolkig
Sa, 04.02. 6:20 1.0° C wolkig
Sa, 04.02. 6:10 0.8° C wolkig
Sa, 04.02. 6:00 -0.2° C wolkig
Sa, 04.02. 5:30 0.3° C leicht bewölkt
Sa, 04.02. 5:00 0.7° C wolkenlos
Sa, 04.02. 4:30 1.4° C wolkenlos
Sa, 04.02. 4:00 1.4° C leicht bewölkt
Ortszeit Relative Feuchte Sichtweite
Sa, 04.02. 7:00 86% 60 km
Sa, 04.02. 1:00 84% 50 km
Fr, 03.02. 19:00 79% 12 km
Fr, 03.02. 13:00 71% 16 km
Fr, 03.02. 7:00 92% 3.5 km
Fr, 03.02. 1:00 94% 12 km
Do, 02.02. 19:00 91% 35 km
Do, 02.02. 13:00 68% 45 km
Ortszeit Relative Feuchte Sichtweite
Sa, 04.02. 7:00 86% 60 km
Sa, 04.02. 6:50 86% -
Sa, 04.02. 6:40 86% -
Sa, 04.02. 6:30 88% 60 km
Sa, 04.02. 6:20 88% -
Sa, 04.02. 6:10 90% -
Sa, 04.02. 6:00 92% 45 km
Sa, 04.02. 5:30 90% 50 km
Sa, 04.02. 5:00 88% 50 km
Sa, 04.02. 4:30 83% >70 km
Sa, 04.02. 4:00 83% >70 km
Ortszeit Niederschlagsmenge Niederschlagsart
Sa, 04.02. 7:00 0.6 l/m2 in 12 Std. -
Sa, 04.02. 1:00 0.6 l/m2 in 6 Std. Regen
Fr, 03.02. 19:00 5 l/m2 in 12 Std. Regen
Fr, 03.02. 13:00 2 l/m2 in 6 Std. Regen
Fr, 03.02. 7:00 6 l/m2 in 12 Std. Regen
Fr, 03.02. 1:00 3 l/m2 in 6 Std. Regen
Do, 02.02. 19:00 0.1 l/m2 in 12 Std. -
Do, 02.02. 13:00 0.1 l/m2 in 6 Std. Regen
Ortszeit Niederschlagsmenge Niederschlagsart
Sa, 04.02. 7:00 0.0 l/m2 in 1 Std. -
Sa, 04.02. 6:50 keine Meldung -
Sa, 04.02. 6:40 keine Meldung -
Sa, 04.02. 6:30 0.0 l/m2 in 30 Min -
Sa, 04.02. 6:20 keine Meldung -
Sa, 04.02. 6:10 keine Meldung -
Sa, 04.02. 6:00 0.0 l/m2 in 1 Std. -
Sa, 04.02. 5:30 0.0 l/m2 in 30 Min -
Sa, 04.02. 5:00 0.0 l/m2 in 1 Std. -
Sa, 04.02. 4:30 0.0 l/m2 in 30 Min -
Sa, 04.02. 4:00 0.0 l/m2 in 1 Std. -
Ortszeit Stärke Spitze Richtung
km/h Bft. km/h Grad Sektor
Sa, 04.02. 7:00 6 1 24 30° NO
Sa, 04.02. 1:00 13 3 48 360° N
Fr, 03.02. 19:00 26 4 69 310° NW
Fr, 03.02. 13:00 37 5 76 290° W
Fr, 03.02. 7:00 36 5 54 260° W
Fr, 03.02. 1:00 18 3 32 180° S
Do, 02.02. 19:00 7 2 22 210° SW
Do, 02.02. 13:00 15 3 30 340° N
Ortszeit Stärke Spitze Richtung
km/h Bft. km/h Grad Sektor
Sa, 04.02. 7:00 6 1 15 30° NO
Sa, 04.02. 6:50 6 1 - 30° NO
Sa, 04.02. 6:40 6 1 - 40° NO
Sa, 04.02. 6:30 6 1 9 40° NO
Sa, 04.02. 6:20 6 1 - 40° NO
Sa, 04.02. 6:10 6 1 - 50° NO
Sa, 04.02. 6:00 4 1 11 10° N
Sa, 04.02. 5:30 4 1 11 350° N
Sa, 04.02. 5:00 4 1 11 20° N
Sa, 04.02. 4:30 7 2 11 40° NO
Sa, 04.02. 4:00 7 2 14 350° N
Ortszeit Untergrenze Bedeckung Gattung
total tief tief mittel hoch
Sa, 04.02. 7:00 480 m 6/8 4/8 - - -
Sa, 04.02. 1:00 450 m 8/8 8/8 - - -
Fr, 03.02. 19:00 600 m 7/8 7/8 - - -
Fr, 03.02. 13:00 870 m 8/8 8/8 - - -
Fr, 03.02. 7:00 240 m 8/8 8/8 - - -
Fr, 03.02. 1:00 210 m 7/8 7/8 - - -
Do, 02.02. 19:00 3600 m 8/8 8/8 - - -
Do, 02.02. 13:00 690 m 2/8 1/8 - - -
Ortszeit Bedeckungsgrad in Achtel und Wolkenuntergrenze
Sa, 04.02. 7:00 4(480m) 6(9000m) 6(10500m)
Sa, 04.02. 6:50 4(480m) 6(9000m) 6(10500m)
Sa, 04.02. 6:40 6
Sa, 04.02. 6:30 6(510m)
Sa, 04.02. 6:20 6(510m)
Sa, 04.02. 6:10 6
Sa, 04.02. 6:00 5(570m)
Sa, 04.02. 5:30 2(540m)
Sa, 04.02. 5:00 keine Wolken
Sa, 04.02. 4:30 keine Wolken
Sa, 04.02. 4:00 2(510m)
Ortszeit Luftdruck NN (hPa) Tendenz (hPa in 3 Std.)
Sa, 04.02. 7:00 1035 + 3,1
Sa, 04.02. 1:00 1028 + 5,0
Fr, 03.02. 19:00 1016 + 3,2
Fr, 03.02. 13:00 1012 + 2,2
Fr, 03.02. 7:00 1010 - 2,7
Fr, 03.02. 1:00 1016 - 3,4
Do, 02.02. 19:00 1021 + 1,2
Do, 02.02. 13:00 1019 + 2,4
Ortszeit Luftdruck NN (hPa) Tendenz (hPa in 3 Std.)
Sa, 04.02. 7:00 1035 + 3,1
Sa, 04.02. 6:50 1035 keine Meldung
Sa, 04.02. 6:40 1035 keine Meldung
Sa, 04.02. 6:30 1034 + 3,4
Sa, 04.02. 6:20 1034 keine Meldung
Sa, 04.02. 6:10 1034 keine Meldung
Sa, 04.02. 6:00 1034 + 3,4
Sa, 04.02. 5:30 1034 + 3,9
Sa, 04.02. 5:00 1033 + 3,7
Sa, 04.02. 4:30 1032 + 3,6
Sa, 04.02. 4:00 1032 + 3,9
Ortszeit Schneehöhe (cm)
Sa, 04.02. 7:00 0
Sa, 04.02. 1:00 0
Fr, 03.02. 19:00 0
Fr, 03.02. 13:00 0
Fr, 03.02. 7:00 0
Fr, 03.02. 1:00 0
Do, 02.02. 19:00 0
Do, 02.02. 13:00 0
Ortszeit Schneehöhe (cm)
Sa, 04.02. 7:00 0
Sa, 04.02. 6:50 0
Sa, 04.02. 6:40 0
Sa, 04.02. 6:30 0
Sa, 04.02. 6:20 0
Sa, 04.02. 6:10 0
Sa, 04.02. 6:00 0
Sa, 04.02. 5:30 0
Sa, 04.02. 5:00 0
Sa, 04.02. 4:30 0
Sa, 04.02. 4:00 0
Link zu dieser Seite / Seite empfehlen

Das Wetter in ...